Time;durP1;ratioP1;P1;durP2;ratioP2;P2;SDS_P1;SDS_P2;PMS_P1;PMS_P2;Temp;Humidity;BMP_temperature;BMP_pressure;BME280_temperature;BME280_humidity;BME280_pressure;Samples;Min_cycle;Max_cycle;Signal;HPM_P1;HPM_P2
2021/07/30 00:01:02;;;;;;;11.23;9.20;;;19.60;99.90;;;;;;5067437;28;20471;-52
2021/07/30 00:03:29;;;;;;;12.17;9.87;;;19.60;99.90;;;;;;5066761;28;20550;-53
2021/07/30 00:05:56;;;;;;;12.07;9.33;;;19.60;99.90;;;;;;5071985;28;20542;-54
2021/07/30 00:08:23;;;;;;;9.00;8.10;;;19.50;99.90;;;;;;5075916;28;21001;-55
2021/07/30 00:10:57;;;;;;;8.60;7.70;;;19.50;99.90;;;;;;5068547;28;20465;-55
2021/07/30 00:13:24;;;;;;;10.57;8.40;;;19.50;99.90;;;;;;5063456;28;20553;-58
2021/07/30 00:15:51;;;;;;;9.10;8.13;;;19.50;99.90;;;;;;5077777;28;20494;-54
2021/07/30 00:18:18;;;;;;;11.10;8.73;;;19.50;99.90;;;;;;5069062;28;20455;-55
2021/07/30 00:20:45;;;;;;;9.40;8.10;;;19.50;99.90;;;;;;5071815;28;20466;-54
2021/07/30 00:23:12;;;;;;;9.87;8.43;;;19.60;99.90;;;;;;5063547;28;20473;-54
2021/07/30 00:25:39;;;;;;;9.87;8.57;;;19.60;99.90;;;;;;5063938;28;21000;-53
2021/07/30 00:28:08;;;;;;;12.40;8.63;;;19.60;99.90;;;;;;5066623;28;20462;-53
2021/07/30 00:30:35;;;;;;;9.13;8.10;;;19.60;99.90;;;;;;5065438;28;20964;-55
2021/07/30 00:33:02;;;;;;;11.73;8.50;;;19.50;99.90;;;;;;5059529;28;20513;-53
2021/07/30 00:35:29;;;;;;;11.20;8.30;;;19.50;99.90;;;;;;5056956;28;20563;-54
2021/07/30 00:37:56;;;;;;;13.20;9.53;;;19.40;99.90;;;;;;5080558;28;20854;-54
2021/07/30 00:40:23;;;;;;;9.10;8.20;;;19.40;99.90;;;;;;5087589;28;20454;-55
2021/07/30 00:42:52;;;;;;;11.73;9.33;;;19.30;99.90;;;;;;5085418;28;20507;-54
2021/07/30 00:45:21;;;;;;;12.73;9.10;;;19.30;99.90;;;;;;5092176;28;20470;-55
2021/07/30 00:47:50;;;;;;;10.80;9.43;;;19.30;99.90;;;;;;5092699;28;20927;-54
2021/07/30 00:50:17;;;;;;;11.40;9.27;;;19.20;99.90;;;;;;5090911;28;20446;-53
2021/07/30 00:52:45;;;;;;;9.27;8.30;;;19.20;99.90;;;;;;5085113;28;20504;-54
2021/07/30 00:55:12;;;;;;;10.60;8.90;;;19.20;99.90;;;;;;5071262;28;20470;-53
2021/07/30 00:57:40;;;;;;;11.23;9.13;;;19.30;99.90;;;;;;5079596;28;20454;-55
2021/07/30 01:00:08;;;;;;;10.43;8.30;;;19.20;99.90;;;;;;5056684;28;20450;-54
2021/07/30 01:02:37;;;;;;;11.80;9.00;;;19.30;99.90;;;;;;5071405;28;20451;-56
2021/07/30 01:05:05;;;;;;;9.80;8.10;;;19.20;99.90;;;;;;5072188;28;20524;-55
2021/07/30 01:07:32;;;;;;;9.97;8.97;;;19.20;99.90;;;;;;5070123;28;20484;-54
2021/07/30 01:10:00;;;;;;;9.20;8.27;;;19.20;99.90;;;;;;5071952;28;20469;-53
2021/07/30 01:12:27;;;;;;;15.47;9.30;;;19.20;99.90;;;;;;5074011;28;20873;-53
2021/07/30 01:14:54;;;;;;;11.40;9.57;;;19.40;99.90;;;;;;5084015;28;20531;-54
2021/07/30 01:17:21;;;;;;;17.77;11.20;;;19.40;99.90;;;;;;5081763;28;20572;-53
2021/07/30 01:19:50;;;;;;;12.40;9.27;;;19.20;99.90;;;;;;5092102;28;20445;-53
2021/07/30 01:22:24;;;;;;;11.30;8.90;;;19.10;99.90;;;;;;5073573;28;20451;-54
2021/07/30 01:24:53;;;;;;;13.30;10.60;;;19.10;99.90;;;;;;5071151;28;20570;-54
2021/07/30 01:27:20;;;;;;;13.17;10.93;;;19.00;99.90;;;;;;5071170;28;20850;-54
2021/07/30 01:29:47;;;;;;;13.63;10.87;;;18.90;99.90;;;;;;5072009;28;20451;-53
2021/07/30 01:32:15;;;;;;;12.27;10.17;;;18.90;99.90;;;;;;5071518;28;21014;-54
2021/07/30 01:34:43;;;;;;;11.53;9.70;;;18.80;99.90;;;;;;5072695;28;21212;-53
2021/07/30 01:37:10;;;;;;;16.10;11.37;;;18.80;99.90;;;;;;5070558;28;20566;-54
2021/07/30 01:39:38;;;;;;;11.30;9.50;;;18.80;99.90;;;;;;5068338;28;20447;-54
2021/07/30 01:42:09;;;;;;;12.40;10.10;;;18.80;99.90;;;;;;5071063;28;21010;-55
2021/07/30 01:44:36;;;;;;;11.30;10.10;;;18.80;99.90;;;;;;5071397;28;20470;-53
2021/07/30 01:47:09;;;;;;;13.10;10.77;;;18.80;99.90;;;;;;5071629;28;20473;-54
2021/07/30 01:49:36;;;;;;;13.87;10.20;;;18.90;99.90;;;;;;5081343;28;20454;-53
2021/07/30 01:52:04;;;;;;;12.43;9.47;;;19.00;99.90;;;;;;5073807;28;20496;-53
2021/07/30 01:54:31;;;;;;;11.20;9.37;;;19.00;99.90;;;;;;5071678;28;20478;-54
2021/07/30 01:56:58;;;;;;;12.60;9.90;;;18.90;99.90;;;;;;5071557;28;20535;-53
2021/07/30 01:59:27;;;;;;;11.80;9.50;;;18.90;99.90;;;;;;5071457;28;20453;-54
2021/07/30 02:01:54;;;;;;;12.27;9.97;;;18.90;99.90;;;;;;5071229;28;20451;-54
2021/07/30 02:04:21;;;;;;;11.93;10.07;;;18.90;99.90;;;;;;5089524;28;20473;-53
2021/07/30 02:06:48;;;;;;;15.00;10.83;;;18.80;99.90;;;;;;5059403;28;20451;-53
2021/07/30 02:09:15;;;;;;;12.40;10.20;;;18.90;99.90;;;;;;5071097;28;20451;-53
2021/07/30 02:11:42;;;;;;;12.17;9.30;;;18.90;99.90;;;;;;5071333;28;20968;-54
2021/07/30 02:14:15;;;;;;;14.33;10.00;;;18.80;99.90;;;;;;5070518;28;20562;-53
2021/07/30 02:16:44;;;;;;;11.87;10.13;;;18.90;99.90;;;;;;5077909;28;20501;-53
2021/07/30 02:19:11;;;;;;;11.60;9.00;;;18.90;99.90;;;;;;5086246;28;20458;-53
2021/07/30 02:21:38;;;;;;;14.93;9.77;;;18.80;99.90;;;;;;5071016;28;20451;-55
2021/07/30 02:26:30;;;;;;;12.80;10.47;;;18.80;99.90;;;;;;5091671;22;20518;-58
2021/07/30 02:28:58;;;;;;;13.90;10.67;;;18.80;99.90;;;;;;5071222;28;20739;-57
2021/07/30 02:31:25;;;;;;;13.20;10.23;;;18.60;99.90;;;;;;5070605;28;20492;-57
2021/07/30 02:33:54;;;;;;;13.93;11.00;;;18.70;99.90;;;;;;5070698;28;21025;-57
2021/07/30 02:36:21;;;;;;;14.30;11.50;;;18.70;99.90;;;;;;5071070;28;20535;-57
2021/07/30 02:38:48;;;;;;;15.50;11.67;;;18.60;99.90;;;;;;5071083;28;20952;-57
2021/07/30 02:41:16;;;;;;;16.90;10.80;;;18.40;99.90;;;;;;5071031;28;20504;-58
2021/07/30 02:43:43;;;;;;;14.60;11.00;;;18.30;99.90;;;;;;5070996;28;20486;-57
2021/07/30 02:46:11;;;;;;;14.03;11.70;;;18.40;99.90;;;;;;5070597;28;20470;-57
2021/07/30 02:48:38;;;;;;;15.20;11.00;;;18.50;99.90;;;;;;5072377;28;20532;-57
2021/07/30 02:51:07;;;;;;;13.23;10.47;;;18.50;99.90;;;;;;5074751;28;20456;-57
2021/07/30 02:53:34;;;;;;;11.67;10.07;;;18.50;99.90;;;;;;5074522;28;20458;-57
2021/07/30 02:56:01;;;;;;;13.07;10.67;;;18.50;99.90;;;;;;5074636;28;20505;-58
2021/07/30 02:58:28;;;;;;;17.40;12.30;;;18.60;99.90;;;;;;5074713;28;20450;-58
2021/07/30 03:00:55;;;;;;;14.33;11.57;;;18.60;99.90;;;;;;5073880;28;21006;-57
2021/07/30 03:03:21;;;;;;;15.47;11.60;;;18.50;99.90;;;;;;5074115;28;20537;-58
2021/07/30 03:05:48;;;;;;;16.93;10.70;;;18.50;99.90;;;;;;5074310;28;20470;-58
2021/07/30 03:08:17;;;;;;;13.53;9.90;;;18.40;99.90;;;;;;5075368;28;20944;-57
2021/07/30 03:10:46;;;;;;;13.93;10.87;;;18.50;99.90;;;;;;5074457;28;20504;-58
2021/07/30 03:13:13;;;;;;;10.93;9.73;;;18.50;99.90;;;;;;5074188;28;20451;-58
2021/07/30 03:15:40;;;;;;;14.10;10.30;;;18.50;99.90;;;;;;5073796;28;20471;-58
2021/07/30 03:18:07;;;;;;;14.07;9.97;;;18.50;99.90;;;;;;5079571;28;21038;-57
2021/07/30 03:20:34;;;;;;;12.17;9.53;;;18.50;99.90;;;;;;5092632;28;20473;-58
2021/07/30 03:23:01;;;;;;;10.43;9.20;;;18.60;99.90;;;;;;5073602;28;20509;-58
2021/07/30 03:25:29;;;;;;;12.20;9.80;;;18.50;99.90;;;;;;5073645;28;20528;-58
2021/07/30 03:27:56;;;;;;;13.63;9.60;;;18.50;99.90;;;;;;5073681;28;20865;-57
2021/07/30 03:30:23;;;;;;;12.67;9.77;;;18.50;99.90;;;;;;5074080;28;20451;-58
2021/07/30 03:32:50;;;;;;;12.37;9.70;;;18.40;99.90;;;;;;5076417;28;20876;-58
2021/07/30 03:35:17;;;;;;;11.37;9.37;;;18.40;99.90;;;;;;5072099;28;20478;-58
2021/07/30 03:37:46;;;;;;;12.70;9.43;;;18.50;99.90;;;;;;5071817;28;20548;-57
2021/07/30 03:40:14;;;;;;;11.50;9.00;;;18.40;99.90;;;;;;5072607;28;20447;-57
2021/07/30 03:42:42;;;;;;;11.57;9.00;;;18.50;99.90;;;;;;5071749;28;20533;-58
2021/07/30 03:45:10;;;;;;;9.40;7.53;;;18.40;99.90;;;;;;5072259;28;21046;-58
2021/07/30 03:47:37;;;;;;;12.17;9.47;;;18.50;99.90;;;;;;5072210;28;20439;-58
2021/07/30 03:50:04;;;;;;;11.67;8.60;;;18.40;99.90;;;;;;5071723;28;20526;-57
2021/07/30 03:52:31;;;;;;;11.77;9.30;;;18.50;99.90;;;;;;5071488;28;20481;-58
2021/07/30 03:54:58;;;;;;;10.73;8.97;;;18.60;99.90;;;;;;5069105;28;20528;-57
2021/07/30 03:57:25;;;;;;;11.53;9.27;;;18.50;99.90;;;;;;5071543;28;21007;-57
2021/07/30 03:59:55;;;;;;;10.20;9.10;;;18.50;99.90;;;;;;5070889;28;20439;-57
2021/07/30 04:02:23;;;;;;;10.73;9.10;;;18.40;99.90;;;;;;5070267;28;20493;-58
2021/07/30 04:04:50;;;;;;;12.83;8.80;;;18.30;99.90;;;;;;5071901;28;20475;-57
2021/07/30 04:07:17;;;;;;;9.70;8.70;;;18.40;99.90;;;;;;5067711;28;20447;-58
2021/07/30 04:09:44;;;;;;;10.87;9.20;;;18.40;99.90;;;;;;5071338;28;21002;-57
2021/07/30 04:12:11;;;;;;;11.70;9.50;;;18.40;99.90;;;;;;5071425;28;20447;-57
2021/07/30 04:14:38;;;;;;;11.50;8.90;;;18.40;99.90;;;;;;5071769;28;20540;-58
2021/07/30 04:17:08;;;;;;;11.20;8.53;;;18.40;99.90;;;;;;5069837;28;20481;-57
2021/07/30 04:19:35;;;;;;;10.67;8.50;;;18.30;99.90;;;;;;5071280;28;20449;-58
2021/07/30 04:22:04;;;;;;;10.80;9.13;;;18.30;99.90;;;;;;5071352;28;20883;-57
2021/07/30 04:24:31;;;;;;;13.30;10.57;;;18.30;99.90;;;;;;5071047;28;20972;-57
2021/07/30 04:26:58;;;;;;;15.37;10.93;;;18.40;99.90;;;;;;5071489;28;20450;-57
2021/07/30 04:29:25;;;;;;;14.03;10.33;;;18.40;99.90;;;;;;5071120;28;20466;-57
2021/07/30 04:31:52;;;;;;;13.67;10.43;;;18.40;99.90;;;;;;5071844;28;21122;-58
2021/07/30 04:34:21;;;;;;;10.83;9.50;;;18.40;99.90;;;;;;5071935;28;20458;-58
2021/07/30 04:36:48;;;;;;;13.50;10.83;;;18.50;99.90;;;;;;5072180;28;20490;-57
2021/07/30 04:39:15;;;;;;;12.93;11.37;;;18.60;99.90;;;;;;5071807;28;20505;-57
2021/07/30 04:41:42;;;;;;;14.57;11.03;;;18.60;99.90;;;;;;5070874;28;20952;-59
2021/07/30 04:44:09;;;;;;;11.97;10.13;;;18.60;99.90;;;;;;5071648;28;20450;-58
2021/07/30 04:46:36;;;;;;;15.60;10.50;;;18.70;99.90;;;;;;5071985;28;20500;-57
2021/07/30 04:49:03;;;;;;;14.43;11.10;;;18.80;99.90;;;;;;5071903;28;21028;-57
2021/07/30 04:51:31;;;;;;;12.50;11.10;;;18.90;99.90;;;;;;5071981;28;20442;-57
2021/07/30 04:53:58;;;;;;;16.47;11.43;;;19.00;99.90;;;;;;5070854;28;20520;-57
2021/07/30 04:56:25;;;;;;;15.77;11.70;;;19.30;99.90;;;;;;5071003;28;20470;-57
2021/07/30 04:58:52;;;;;;;12.43;9.60;;;19.60;99.90;;;;;;5071688;28;20919;-58
2021/07/30 05:01:19;;;;;;;14.60;11.10;;;19.90;99.90;;;;;;5071589;28;20443;-58
2021/07/30 05:03:46;;;;;;;12.83;11.20;;;20.30;99.90;;;;;;5071265;28;20538;-58
2021/07/30 05:06:14;;;;;;;12.77;10.00;;;20.80;99.90;;;;;;5071773;28;20466;-58
2021/07/30 05:08:43;;;;;;;13.10;9.83;;;21.10;99.90;;;;;;5071371;28;20496;-57
2021/07/30 05:11:11;;;;;;;11.80;9.57;;;21.60;99.90;;;;;;5071116;28;20519;-58
2021/07/30 05:13:39;;;;;;;12.17;9.20;;;22.00;99.90;;;;;;5070921;28;20944;-58
2021/07/30 05:16:07;;;;;;;14.33;9.27;;;22.10;99.90;;;;;;5071431;28;21031;-58
2021/07/30 05:18:35;;;;;;;11.10;9.60;;;22.20;99.90;;;;;;5071529;28;20490;-58
2021/07/30 05:21:05;;;;;;;12.77;9.87;;;22.30;99.90;;;;;;5071342;28;20940;-58
2021/07/30 05:23:32;;;;;;;16.57;9.67;;;22.50;99.90;;;;;;5070884;28;20488;-57
2021/07/30 05:26:02;;;;;;;9.60;8.60;;;22.80;99.90;;;;;;5071313;28;20474;-58
2021/07/30 05:28:29;;;;;;;11.70;9.17;;;23.00;99.90;;;;;;5070559;28;20944;-58
2021/07/30 05:30:58;;;;;;;10.00;9.00;;;23.10;99.90;;;;;;5070881;28;20454;-58
2021/07/30 05:33:25;;;;;;;11.00;9.80;;;23.20;99.90;;;;;;5070218;28;21024;-58
2021/07/30 05:35:53;;;;;;;12.67;9.20;;;23.40;99.90;;;;;;5071128;28;20911;-58
2021/07/30 05:38:21;;;;;;;10.87;8.97;;;23.50;99.90;;;;;;5070046;28;20784;-58
2021/07/30 05:40:48;;;;;;;12.57;9.87;;;23.90;99.90;;;;;;5070756;28;20495;-58
2021/07/30 05:43:17;;;;;;;11.47;8.97;;;24.10;99.90;;;;;;5070828;28;20451;-58
2021/07/30 05:45:45;;;;;;;9.63;8.13;;;24.30;99.90;;;;;;5070916;28;20474;-57
2021/07/30 05:48:12;;;;;;;8.93;8.03;;;24.60;99.90;;;;;;5070581;28;20827;-58
2021/07/30 05:50:39;;;;;;;12.03;8.70;;;24.70;99.90;;;;;;5067288;28;20543;-59
2021/07/30 05:53:06;;;;;;;9.37;8.40;;;24.60;99.90;;;;;;5070496;28;20455;-58
2021/07/30 05:55:33;;;;;;;11.00;8.90;;;24.50;99.90;;;;;;5070059;28;20463;-58
2021/07/30 05:58:00;;;;;;;11.77;8.90;;;24.40;99.90;;;;;;5070594;28;21007;-58
2021/07/30 06:00:28;;;;;;;14.13;8.10;;;24.50;99.90;;;;;;5071031;28;20451;-58
2021/07/30 06:02:55;;;;;;;10.27;8.97;;;24.60;99.90;;;;;;5069839;28;21010;-58
2021/07/30 06:05:22;;;;;;;11.50;7.87;;;24.80;99.90;;;;;;5070878;28;20463;-59
2021/07/30 06:07:49;;;;;;;10.00;8.30;;;25.30;99.90;;;;;;5070510;28;20447;-58
2021/07/30 06:10:16;;;;;;;11.60;8.30;;;25.60;99.90;;;;;;5070540;28;20824;-58
2021/07/30 06:12:43;;;;;;;10.90;8.10;;;25.00;99.90;;;;;;5069544;28;20465;-57
2021/07/30 06:15:11;;;;;;;10.70;8.90;;;24.90;99.90;;;;;;5070607;28;20475;-58
2021/07/30 06:17:39;;;;;;;12.20;9.00;;;25.10;99.90;;;;;;5070085;28;20524;-59
2021/07/30 06:20:08;;;;;;;9.63;8.70;;;25.50;99.90;;;;;;5066451;28;20453;-58
2021/07/30 06:22:37;;;;;;;9.03;8.03;;;25.90;99.90;;;;;;5069796;28;20447;-58
2021/07/30 06:25:05;;;;;;;11.23;9.20;;;25.80;99.90;;;;;;5073533;28;20859;-58
2021/07/30 06:27:34;;;;;;;10.13;8.90;;;26.00;99.90;;;;;;5071693;28;20435;-59
2021/07/30 06:30:01;;;;;;;9.60;8.40;;;26.10;99.90;;;;;;5074392;28;21217;-59
2021/07/30 06:32:28;;;;;;;11.17;8.57;;;26.20;99.90;;;;;;5073571;28;20446;-59
2021/07/30 06:34:56;;;;;;;13.07;10.33;;;26.30;99.90;;;;;;5073575;28;20512;-58
2021/07/30 06:37:24;;;;;;;9.23;8.33;;;26.60;99.90;;;;;;5074338;28;20532;-59
2021/07/30 06:39:51;;;;;;;10.87;8.07;;;27.10;99.90;;;;;;5073610;28;20455;-59
2021/07/30 06:42:18;;;;;;;8.97;8.07;;;27.50;99.90;;;;;;5073656;28;20454;-58
2021/07/30 06:44:47;;;;;;;11.35;9.20;;;28.00;99.90;;;;;;5070669;28;20434;-59
2021/07/30 06:47:14;;;;;;;9.23;8.37;;;28.00;99.90;;;;;;5074083;28;20266;-58
2021/07/30 06:49:41;;;;;;;10.43;9.10;;;28.30;99.90;;;;;;5074121;28;20489;-59
2021/07/30 06:52:13;;;;;;;11.63;8.77;;;27.80;99.90;;;;;;5069460;28;20496;-58
2021/07/30 06:54:41;;;;;;;10.63;9.53;;;28.00;99.90;;;;;;5069304;28;20476;-59
2021/07/30 06:57:10;;;;;;;11.47;9.07;;;27.50;99.90;;;;;;5065637;28;20581;-59
2021/07/30 06:59:38;;;;;;;9.77;8.77;;;26.50;99.90;;;;;;5062243;28;20458;-58
2021/07/30 07:02:05;;;;;;;11.97;9.50;;;25.90;99.90;;;;;;5063705;28;20544;-59
2021/07/30 07:04:33;;;;;;;11.00;8.80;;;25.80;99.90;;;;;;5063142;28;20493;-59
2021/07/30 07:07:00;;;;;;;9.20;8.20;;;25.30;99.90;;;;;;5063824;28;20466;-59
2021/07/30 07:09:28;;;;;;;10.80;8.43;;;25.90;99.90;;;;;;5064498;28;20463;-59
2021/07/30 07:11:55;;;;;;;11.80;8.90;;;26.50;99.90;;;;;;5070001;28;20466;-59
2021/07/30 07:14:22;;;;;;;10.27;8.60;;;27.20;99.90;;;;;;5070528;28;20517;-59
2021/07/30 07:16:49;;;;;;;9.70;8.27;;;27.80;99.90;;;;;;5070425;28;20459;-58
2021/07/30 07:19:16;;;;;;;10.23;8.00;;;27.90;99.90;;;;;;5065334;28;20533;-58
2021/07/30 07:21:43;;;;;;;10.10;7.90;;;28.20;99.90;;;;;;5072480;28;20500;-59
2021/07/30 07:24:10;;;;;;;9.10;8.00;;;28.10;99.90;;;;;;5069960;28;20516;-58
2021/07/30 07:26:39;;;;;;;8.27;7.47;;;28.10;99.90;;;;;;5065171;28;20455;-59
2021/07/30 07:29:07;;;;;;;12.60;8.60;;;28.20;99.90;;;;;;5063883;28;20450;-59
2021/07/30 07:31:34;;;;;;;8.70;7.80;;;28.20;99.90;;;;;;5063358;28;20528;-58
2021/07/30 07:34:01;;;;;;;9.70;8.70;;;27.90;99.90;;;;;;5064233;28;20549;-59
2021/07/30 07:36:28;;;;;;;9.07;7.90;;;27.90;99.90;;;;;;5064145;28;20524;-59
2021/07/30 07:38:55;;;;;;;9.07;7.93;;;27.90;99.90;;;;;;5063648;28;20475;-59
2021/07/30 07:41:22;;;;;;;9.50;7.30;;;28.20;99.90;;;;;;5063853;28;21034;-59
2021/07/30 07:43:50;;;;;;;8.50;7.03;;;28.30;99.90;;;;;;5066102;28;20459;-59
2021/07/30 07:46:17;;;;;;;9.73;8.33;;;29.00;99.90;;;;;;5059453;28;20540;-59
2021/07/30 07:48:44;;;;;;;8.10;7.30;;;29.50;99.90;;;;;;5072244;28;20442;-59
2021/07/30 07:51:11;;;;;;;8.90;6.53;;;30.00;99.90;;;;;;5064723;28;20895;-58
2021/07/30 07:53:38;;;;;;;7.80;7.10;;;30.30;99.90;;;;;;5072034;28;20473;-59
2021/07/30 07:56:07;;;;;;;7.73;7.03;;;30.80;99.90;;;;;;5069898;28;20483;-60
2021/07/30 07:58:35;;;;;;;7.47;6.73;;;31.20;99.90;;;;;;5070803;28;20486;-59
2021/07/30 08:01:03;;;;;;;7.87;7.07;;;31.30;99.90;;;;;;5065422;28;20447;-59
2021/07/30 08:03:30;;;;;;;8.73;7.10;;;31.10;99.90;;;;;;5064606;28;20502;-59
2021/07/30 08:05:57;;;;;;;8.87;8.07;;;31.00;99.90;;;;;;5066584;28;20529;-59
2021/07/30 08:08:24;;;;;;;7.97;7.27;;;30.90;99.90;;;;;;5064376;28;20825;-59
2021/07/30 08:10:51;;;;;;;8.37;7.53;;;31.10;99.90;;;;;;5072523;28;20513;-60
2021/07/30 08:13:18;;;;;;;8.17;7.37;;;31.00;99.90;;;;;;5063762;28;20508;-58
2021/07/30 08:15:44;;;;;;;8.17;7.47;;;31.30;99.90;;;;;;5063099;28;20486;-60
2021/07/30 08:18:13;;;;;;;9.57;7.30;;;31.30;99.90;;;;;;5063777;28;20981;-60
2021/07/30 08:20:40;;;;;;;8.30;7.53;;;31.80;99.90;;;;;;5071143;28;20442;-59
2021/07/30 08:23:07;;;;;;;9.77;8.80;;;31.60;99.90;;;;;;5062300;28;21045;-59
2021/07/30 08:25:34;;;;;;;9.70;8.00;;;31.70;99.90;;;;;;5087210;22;20494;-56
2021/07/30 08:28:04;;;;;;;9.07;8.17;;;31.00;99.90;;;;;;5064628;28;20434;-56
2021/07/30 08:30:31;;;;;;;11.60;7.60;;;30.70;99.90;;;;;;5063118;28;20546;-54
2021/07/30 08:32:58;;;;;;;7.97;7.17;;;31.00;99.90;;;;;;5067300;28;20442;-53
2021/07/30 08:35:26;;;;;;;8.83;7.93;;;31.20;99.90;;;;;;5070623;28;20485;-54
2021/07/30 08:37:53;;;;;;;8.23;7.40;;;31.20;99.90;;;;;;5069999;28;20960;-54
2021/07/30 08:40:21;;;;;;;10.33;8.07;;;31.50;99.90;;;;;;5069311;28;20462;-54
2021/07/30 08:42:48;;;;;;;12.20;7.53;;;31.50;99.90;;;;;;5071650;28;20471;-54
2021/07/30 08:45:15;;;;;;;8.87;8.07;;;31.60;99.90;;;;;;5069088;28;20490;-54
2021/07/30 08:47:44;;;;;;;9.40;8.50;;;31.70;99.90;;;;;;5062106;28;20462;-54
2021/07/30 08:50:13;;;;;;;8.87;7.80;;;31.90;99.90;;;;;;5066094;28;20520;-54
2021/07/30 08:52:43;;;;;;;8.23;7.43;;;31.80;99.90;;;;;;5062292;28;20521;-54
2021/07/30 08:55:12;;;;;;;10.50;7.60;;;31.70;99.90;;;;;;5070731;28;20486;-54
2021/07/30 08:57:42;;;;;;;10.90;7.93;;;31.60;99.90;;;;;;5070766;28;20475;-54
2021/07/30 09:00:11;;;;;;;8.37;7.63;;;31.80;99.90;;;;;;5058086;28;20860;-54
2021/07/30 09:02:38;;;;;;;8.67;7.77;;;31.80;99.90;;;;;;5067090;28;20895;-54
2021/07/30 09:05:24;;;;;;;8.30;7.27;;;32.10;99.90;;;;;;5061906;28;20870;-55
2021/07/30 09:07:52;;;;;;;7.97;7.17;;;32.40;99.90;;;;;;5069340;28;20462;-54
2021/07/30 09:10:30;;;;;;;7.93;7.23;;;32.20;99.90;;;;;;5071329;28;20880;-54
2021/07/30 09:13:18;;;;;;;9.10;6.50;;;31.90;99.90;;;;;;5058974;28;20463;-54
2021/07/30 09:15:47;;;;;;;7.43;6.83;;;32.20;99.90;;;;;;5060658;28;21031;-54
2021/07/30 09:18:25;;;;;;;8.10;7.30;;;32.40;99.90;;;;;;5069948;28;20482;-54
2021/07/30 09:20:53;;;;;;;7.67;7.00;;;32.70;99.90;;;;;;5063477;28;20475;-53
2021/07/30 09:23:21;;;;;;;8.53;7.63;;;32.50;99.90;;;;;;5070319;28;20467;-55
2021/07/30 09:25:48;;;;;;;7.07;6.43;;;32.20;99.90;;;;;;5070147;28;21019;-55
2021/07/30 09:28:15;;;;;;;8.83;8.00;;;31.90;99.90;;;;;;5071717;28;20446;-54
2021/07/30 09:30:42;;;;;;;8.87;8.07;;;31.50;99.90;;;;;;5060120;28;20525;-54
2021/07/30 09:33:09;;;;;;;7.17;6.57;;;31.00;99.90;;;;;;5069812;28;20466;-54
2021/07/30 09:35:57;;;;;;;7.30;6.43;;;30.00;99.90;;;;;;5062236;28;20488;-55
2021/07/30 09:38:26;;;;;;;7.90;7.20;;;30.60;99.90;;;;;;5060114;28;20511;-55
2021/07/30 09:41:12;;;;;;;7.97;7.27;;;31.30;99.90;;;;;;5068073;28;20455;-53
2021/07/30 09:43:44;;;;;;;9.37;8.47;;;32.30;99.90;;;;;;5065798;28;20485;-55
2021/07/30 09:46:13;;;;;;;8.63;7.83;;;31.80;99.90;;;;;;5063435;28;20607;-54
2021/07/30 09:48:50;;;;;;;8.93;8.13;;;31.10;99.90;;;;;;5062528;28;20456;-55
2021/07/30 09:51:18;;;;;;;8.83;7.70;;;30.90;99.90;;;;;;5056283;28;20500;-54
2021/07/30 09:53:47;;;;;;;12.13;8.77;;;30.00;99.90;;;;;;5062476;28;20490;-54
2021/07/30 09:56:15;;;;;;;11.10;10.00;;;29.40;99.90;;;;;;5069057;28;20843;-54
2021/07/30 09:58:45;;;;;;;11.80;10.57;;;29.00;99.90;;;;;;5071086;28;20474;-54
2021/07/30 10:01:16;;;;;;;16.63;11.93;;;27.40;99.90;;;;;;5062509;28;20466;-54
2021/07/30 10:03:45;;;;;;;12.13;10.93;;;26.80;99.90;;;;;;5074684;28;20874;-54
2021/07/30 10:06:14;;;;;;;12.13;9.40;;;26.40;99.90;;;;;;5073422;28;20478;-54
2021/07/30 10:08:42;;;;;;;12.97;10.70;;;26.60;99.90;;;;;;5073343;28;20562;-53
2021/07/30 10:11:12;;;;;;;10.90;9.87;;;26.90;99.90;;;;;;5074753;28;20493;-54
2021/07/30 10:13:47;;;;;;;14.90;9.17;;;27.10;99.90;;;;;;5074110;28;20467;-54
2021/07/30 10:16:17;;;;;;;12.33;9.00;;;27.70;99.90;;;;;;5063479;28;20546;-54
2021/07/30 10:18:45;;;;;;;9.50;8.50;;;26.80;99.90;;;;;;5064024;28;20451;-54
2021/07/30 10:21:15;;;;;;;11.40;8.87;;;27.20;99.90;;;;;;5068399;28;20288;-54
2021/07/30 10:23:44;;;;;;;8.70;7.80;;;27.20;99.90;;;;;;5073422;28;20603;-54
2021/07/30 10:26:14;;;;;;;8.80;7.43;;;27.40;99.90;;;;;;5070801;28;20539;-53
2021/07/30 10:28:41;;;;;;;8.77;7.87;;;27.60;99.90;;;;;;5073144;28;20443;-54
2021/07/30 10:31:10;;;;;;;9.00;8.10;;;28.00;99.90;;;;;;5065127;28;20972;-54
2021/07/30 10:33:49;;;;;;;8.70;6.80;;;28.70;99.90;;;;;;5057325;28;20449;-54
2021/07/30 10:36:38;;;;;;;8.50;7.60;;;28.80;99.90;;;;;;5064989;28;20485;-54
2021/07/30 10:39:11;;;;;;;7.43;6.73;;;29.20;99.90;;;;;;5064779;28;20598;-54
2021/07/30 10:41:41;;;;;;;7.83;7.03;;;29.30;99.90;;;;;;5072435;28;20469;-54
2021/07/30 10:44:11;;;;;;;8.10;6.83;;;29.30;99.90;;;;;;5072823;28;21322;-54
2021/07/30 10:46:39;;;;;;;9.50;7.13;;;29.30;99.90;;;;;;5073103;28;20490;-54
2021/07/30 10:49:42;;;;;;;6.83;6.20;;;29.20;99.90;;;;;;5066161;28;20467;-54
2021/07/30 10:52:29;;;;;;;8.27;7.17;;;29.40;99.90;;;;;;5060180;28;20469;-53
2021/07/30 10:54:56;;;;;;;6.70;6.00;;;29.30;99.90;;;;;;5065486;28;20482;-54
2021/07/30 10:57:49;;;;;;;6.70;6.10;;;29.50;99.90;;;;;;5061281;28;20524;-55
2021/07/30 11:00:16;;;;;;;6.30;5.70;;;29.20;99.90;;;;;;5055579;28;20557;-56
2021/07/30 11:03:06;;;;;;;7.13;5.97;;;29.40;99.90;;;;;;5072233;28;20543;-56
2021/07/30 11:05:35;;;;;;;6.40;5.80;;;29.60;99.90;;;;;;5070222;28;20539;-56
2021/07/30 11:08:03;;;;;;;6.33;5.73;;;29.10;99.90;;;;;;5069818;28;20469;-56
2021/07/30 11:10:30;;;;;;;6.40;5.57;;;28.70;99.90;;;;;;5063562;28;20876;-57
2021/07/30 11:13:01;;;;;;;7.63;5.30;;;28.90;99.90;;;;;;5065549;28;20462;-56
2021/07/30 11:15:34;;;;;;;6.60;6.00;;;29.40;99.90;;;;;;5073122;28;20561;-55
2021/07/30 11:18:02;;;;;;;5.50;5.00;;;29.40;99.90;;;;;;5064857;28;20466;-56
2021/07/30 11:20:36;;;;;;;6.53;5.93;;;29.60;99.90;;;;;;5067527;28;20483;-56
2021/07/30 11:23:05;;;;;;;7.50;5.80;;;29.60;99.90;;;;;;5072380;28;20478;-56
2021/07/30 11:25:32;;;;;;;5.70;5.20;;;28.90;99.90;;;;;;5064308;28;20560;-56
2021/07/30 11:28:01;;;;;;;5.97;5.47;;;28.90;99.90;;;;;;5061600;28;20451;-57
2021/07/30 11:30:30;;;;;;;6.23;5.70;;;29.00;99.90;;;;;;5062849;28;20604;-57
2021/07/30 11:32:58;;;;;;;7.60;6.90;;;28.90;99.90;;;;;;5062006;28;20538;-56
2021/07/30 11:35:29;;;;;;;6.40;5.90;;;28.60;99.90;;;;;;5066699;28;20561;-55
2021/07/30 11:38:01;;;;;;;6.97;6.20;;;28.00;99.90;;;;;;5063147;28;20462;-55
2021/07/30 11:40:28;;;;;;;7.93;6.10;;;28.20;99.90;;;;;;5068764;28;20486;-57
2021/07/30 11:43:08;;;;;;;6.10;5.50;;;28.40;99.90;;;;;;5070352;28;20458;-55
2021/07/30 11:45:35;;;;;;;10.20;7.10;;;28.60;99.90;;;;;;5065644;28;20471;-55
2021/07/30 11:48:11;;;;;;;7.83;6.63;;;28.40;99.90;;;;;;5070893;28;20467;-56
2021/07/30 11:50:39;;;;;;;7.20;6.50;;;28.50;99.90;;;;;;5067347;28;20554;-55
2021/07/30 11:53:08;;;;;;;7.90;7.10;;;28.50;99.90;;;;;;5068580;28;20494;-56
2021/07/30 11:55:36;;;;;;;7.00;6.40;;;28.20;99.90;;;;;;5070013;28;20514;-55
2021/07/30 11:58:12;;;;;;;7.40;6.50;;;28.60;99.90;;;;;;5060257;28;20527;-55
2021/07/30 12:00:40;;;;;;;7.07;6.37;;;28.60;99.90;;;;;;5063219;28;20478;-56
2021/07/30 12:03:22;;;;;;;6.70;6.10;;;28.00;99.90;;;;;;5066449;28;20491;-57
2021/07/30 12:05:50;;;;;;;10.13;6.60;;;27.90;99.90;;;;;;5063788;28;20487;-57
2021/07/30 12:08:19;;;;;;;6.73;6.13;;;27.70;99.90;;;;;;5061828;28;20960;-56
2021/07/30 12:10:48;;;;;;;6.87;6.17;;;27.80;99.90;;;;;;5061296;28;20466;-56
2021/07/30 12:13:19;;;;;;;6.83;6.23;;;27.70;99.90;;;;;;5061996;28;20467;-57
2021/07/30 12:15:46;;;;;;;7.07;6.37;;;28.10;99.90;;;;;;5061409;28;20492;-55
2021/07/30 12:18:14;;;;;;;7.77;5.90;;;28.00;99.90;;;;;;5062940;28;20885;-56
2021/07/30 12:20:43;;;;;;;6.33;5.73;;;28.20;99.90;;;;;;5059986;28;20479;-55
2021/07/30 12:23:11;;;;;;;6.70;6.10;;;28.40;99.90;;;;;;5061304;28;20455;-56
2021/07/30 12:25:43;;;;;;;6.37;5.87;;;28.50;99.90;;;;;;5062962;28;21008;-53
2021/07/30 12:28:12;;;;;;;6.47;5.80;;;28.40;99.90;;;;;;5062628;28;20477;-53
2021/07/30 12:30:41;;;;;;;6.70;6.00;;;28.70;99.90;;;;;;5060683;28;20465;-58
2021/07/30 12:33:25;;;;;;;7.50;6.80;;;28.80;99.90;;;;;;5056935;28;21059;-56
2021/07/30 12:36:03;;;;;;;7.03;6.30;;;28.60;99.90;;;;;;5062707;28;20530;-53
2021/07/30 12:38:30;;;;;;;7.00;6.40;;;28.80;99.90;;;;;;5062710;28;20516;-53
2021/07/30 12:41:18;;;;;;;6.87;6.03;;;28.70;99.90;;;;;;5060383;28;20482;-56
2021/07/30 12:43:45;;;;;;;7.10;6.23;;;28.70;99.90;;;;;;5065772;28;20964;-54
2021/07/30 12:46:37;;;;;;;7.23;6.53;;;28.70;99.90;;;;;;5070380;28;20554;-54
2021/07/30 12:49:05;;;;;;;7.40;6.70;;;28.70;99.90;;;;;;5062679;28;20450;-53
2021/07/30 12:51:33;;;;;;;8.57;6.63;;;28.10;99.90;;;;;;5070410;28;20508;-53